Terminal Aerodrome Forecast
Issued by NWS Milwaukee/Sullivan, WI

Home | Current Version | Previous Version | Text Only | Print | Product List | Glossary On
Versions: 1 2 3 4 5 6 7 8 9 10 11 12 13 14 15 16 17 18 19 20 21 22 23 24 25 26 27 28 29 30 31 32 33 34 35 36 37 38 39 40 41 42 43 44 45 46 47 48 49 50
389
FTUS43 KMKX 222109 AAA
TAFMKE
TAF AMD
KMKE 222109Z 2221/2324 01012KT 1 1/2SM -DZ BR OVC002 WS020/19035KT
     FM230100 05005KT 4SM BR VCSH OVC010
     FM230400 33006KT 1SM -RA BR OVC008
     FM230700 34011G24KT 2SM -SN BR OVC006
     FM231500 34017G27KT P6SM OVC020=

USA.gov is the U.S. government's official web portal to all federal, state and local government web resources and services.